createdAt,value
2022-12-16T00:00:27.707Z,94485.47
2022-12-16T00:02:29.430Z,94479.56
2022-12-16T00:04:31.032Z,94478.56
2022-12-16T00:06:34.190Z,94488.03
2022-12-16T00:08:38.203Z,94490.34
2022-12-16T00:10:57.412Z,94493.25
2022-12-16T00:12:59.290Z,94453.03
2022-12-16T00:15:00.867Z,94478.44
2022-12-16T00:17:02.537Z,94486.53
2022-12-16T00:19:04.256Z,94467.97
2022-12-16T00:21:06.686Z,94477.78
2022-12-16T00:23:08.308Z,94492.84
2022-12-16T00:25:09.930Z,94440.03
2022-12-16T00:27:11.494Z,94476.41
2022-12-16T00:29:13.091Z,94468.22
2022-12-16T00:31:14.787Z,94474.09
2022-12-16T00:33:16.871Z,94463.31
2022-12-16T00:35:18.504Z,94469.03
2022-12-16T00:37:20.338Z,94492.88
2022-12-16T00:39:21.969Z,94462.09
2022-12-16T00:41:23.612Z,94464.97
2022-12-16T00:43:25.317Z,94481.44
2022-12-16T00:45:27.550Z,94465.53
2022-12-16T00:47:29.198Z,94459.91
2022-12-16T00:49:30.993Z,94484.81
2022-12-16T00:51:32.632Z,94459.16
2022-12-16T00:53:36.128Z,94479.88
2022-12-16T00:55:37.939Z,94466.50
2022-12-16T00:57:39.770Z,94460.28
2022-12-16T00:59:41.428Z,94478.50
2022-12-16T01:01:43.640Z,94456.22
2022-12-16T01:03:45.520Z,94467.94
2022-12-16T01:05:47.212Z,94455.81
2022-12-16T01:07:48.882Z,94472.91
2022-12-16T01:09:50.502Z,94461.25
2022-12-16T01:11:53.485Z,94467.53
2022-12-16T01:13:56.609Z,94452.63
2022-12-16T01:16:01.753Z,94476.81
2022-12-16T01:18:03.346Z,94479.44
2022-12-16T01:20:05.670Z,94473.59
2022-12-16T01:22:07.374Z,94483.03
2022-12-16T01:24:11.123Z,94466.78
2022-12-16T01:26:16.665Z,94469.03
2022-12-16T01:28:18.551Z,94463.34
2022-12-16T01:30:20.439Z,94469.38
2022-12-16T01:32:22.618Z,94458.66
2022-12-16T01:34:24.734Z,94462.22
2022-12-16T01:36:26.606Z,94454.72
2022-12-16T01:38:28.866Z,94447.63
2022-12-16T01:40:30.735Z,94447.59
2022-12-16T01:42:33.703Z,94472.63
2022-12-16T01:44:35.370Z,94449.59
2022-12-16T01:46:38.660Z,94451.56
2022-12-16T01:48:58.985Z,94440.81
2022-12-16T01:51:07.762Z,94444.38
2022-12-16T01:53:10.190Z,94447.94
2022-12-16T01:55:25.154Z,94446.06
2022-12-16T01:57:32.349Z,94431.28
2022-12-16T01:59:36.290Z,94446.19
2022-12-16T02:01:38.002Z,94439.91
2022-12-16T02:03:39.983Z,94443.16
2022-12-16T02:05:43.100Z,94453.56
2022-12-16T02:07:44.842Z,94428.78
2022-12-16T02:09:46.587Z,94397.31
2022-12-16T02:12:30.236Z,94420.16
2022-12-16T02:14:38.063Z,94402.09
2022-12-16T02:16:49.203Z,94409.88
2022-12-16T02:18:57.004Z,94404.28
2022-12-16T02:21:23.492Z,94417.88
2022-12-16T02:23:34.672Z,94429.06
2022-12-16T02:25:54.800Z,94402.31
2022-12-16T02:28:09.303Z,94419.56
2022-12-16T02:30:19.738Z,94407.25
2022-12-16T02:32:21.342Z,94398.88
2022-12-16T02:34:50.670Z,94408.97
2022-12-16T02:37:16.412Z,94410.09
2022-12-16T02:39:23.142Z,94408.56
2022-12-16T02:41:43.729Z,94426.47
2022-12-16T02:44:05.074Z,94410.94
2022-12-16T02:46:07.758Z,94432.81
2022-12-16T02:48:10.087Z,94416.78
2022-12-16T02:50:18.957Z,94441.69
2022-12-16T02:52:31.802Z,94448.75
2022-12-16T02:54:33.466Z,94446.22
2022-12-16T02:56:59.259Z,94458.66
2022-12-16T02:59:18.572Z,94468.56
2022-12-16T03:01:27.587Z,94448.22
2022-12-16T03:03:41.077Z,94470.38
2022-12-16T03:05:48.413Z,94444.16
2022-12-16T03:07:51.499Z,94443.53
2022-12-16T03:09:54.104Z,94440.56
2022-12-16T03:11:57.058Z,94423.19
2022-12-16T03:14:00.416Z,94420.34
2022-12-16T03:16:03.901Z,94419.81
2022-12-16T03:18:08.687Z,94405.44
2022-12-16T03:20:15.363Z,94420.91
2022-12-16T03:22:20.593Z,94409.94
2022-12-16T03:24:22.471Z,94407.78
2022-12-16T03:26:30.979Z,94400.66
2022-12-16T03:28:46.234Z,94412.28
2022-12-16T03:30:55.793Z,94411.59
2022-12-16T03:33:23.040Z,94404.75
2022-12-16T03:35:35.928Z,94402.81
2022-12-16T03:37:38.724Z,94405.56
2022-12-16T03:39:44.348Z,94424.03
2022-12-16T03:41:47.668Z,94428.81
2022-12-16T03:43:49.809Z,94446.53
2022-12-16T03:45:53.690Z,94433.03
2022-12-16T03:47:57.119Z,94460.59
2022-12-16T03:49:58.807Z,94430.97
2022-12-16T03:52:00.472Z,94450.59
2022-12-16T03:54:02.283Z,94452.47
2022-12-16T03:56:04.145Z,94449.28
2022-12-16T03:58:05.822Z,94452.72
2022-12-16T04:00:08.226Z,94444.84
2022-12-16T04:02:10.246Z,94458.13
2022-12-16T04:04:12.285Z,94467.06
2022-12-16T04:06:18.596Z,94449.69
2022-12-16T04:08:20.338Z,94445.75
2022-12-16T04:10:41.886Z,94446.03
2022-12-16T04:13:02.374Z,94445.91
2022-12-16T04:15:23.769Z,94438.41
2022-12-16T04:17:44.318Z,94460.28
2022-12-16T04:20:04.859Z,94447.97
2022-12-16T04:22:32.804Z,94460.84
2022-12-16T04:24:35.186Z,94450.16
2022-12-16T04:26:56.884Z,94435.13
2022-12-16T04:28:58.533Z,94430.63
2022-12-16T04:31:00.340Z,94434.31
2022-12-16T04:33:30.379Z,94434.06
2022-12-16T04:35:51.172Z,94447.88
2022-12-16T04:38:11.197Z,94446.88
2022-12-16T04:40:31.701Z,94444.84
2022-12-16T04:42:52.041Z,94424.88
2022-12-16T04:45:12.728Z,94414.09
2022-12-16T04:47:33.092Z,94414.50
2022-12-16T04:49:53.457Z,94418.47
2022-12-16T04:52:13.126Z,94432.03
2022-12-16T04:54:32.897Z,94417.63
2022-12-16T04:56:53.008Z,94412.28
2022-12-16T04:59:13.322Z,94424.34
2022-12-16T05:01:33.348Z,94423.66
2022-12-16T05:03:53.919Z,94436.91
2022-12-16T05:06:14.426Z,94420.22
2022-12-16T05:08:34.813Z,94428.81
2022-12-16T05:10:54.802Z,94433.22
2022-12-16T05:13:15.176Z,94423.38
2022-12-16T05:15:35.618Z,94418.44
2022-12-16T05:17:55.898Z,94436.81
2022-12-16T05:20:15.936Z,94452.44
2022-12-16T05:22:36.285Z,94442.28
2022-12-16T05:24:56.544Z,94441.88
2022-12-16T05:27:16.461Z,94436.63
2022-12-16T05:29:36.775Z,94447.09
2022-12-16T05:31:57.183Z,94452.84
2022-12-16T05:34:17.903Z,94456.69
2022-12-16T05:36:38.326Z,94475.94
2022-12-16T05:38:58.189Z,94476.53
2022-12-16T05:41:18.323Z,94484.72
2022-12-16T05:43:38.478Z,94475.06
2022-12-16T05:45:59.460Z,94473.84
2022-12-16T05:48:19.671Z,94477.81
2022-12-16T05:50:40.237Z,94488.75
2022-12-16T05:53:00.193Z,94467.53
2022-12-16T05:55:20.393Z,94466.00
2022-12-16T05:57:40.676Z,94485.75
2022-12-16T06:00:01.109Z,94478.78
2022-12-16T06:02:21.220Z,94481.16
2022-12-16T06:04:41.204Z,94517.13
2022-12-16T06:07:01.170Z,94508.44
2022-12-16T06:09:21.820Z,94527.00
2022-12-16T06:11:41.850Z,94514.69
2022-12-16T06:14:02.038Z,94500.66
2022-12-16T06:16:22.485Z,94521.69
2022-12-16T06:18:42.366Z,94517.44
2022-12-16T06:21:02.671Z,94533.97
2022-12-16T06:23:25.563Z,94534.81
2022-12-16T06:25:46.242Z,94522.66
2022-12-16T06:28:12.617Z,94514.09
2022-12-16T06:30:33.046Z,94532.53
2022-12-16T06:32:53.372Z,94529.88
2022-12-16T06:35:13.813Z,94497.47
2022-12-16T06:37:34.205Z,94520.53
2022-12-16T06:39:54.629Z,94502.81
2022-12-16T06:42:14.494Z,94519.00
2022-12-16T06:44:34.776Z,94516.81
2022-12-16T06:46:54.703Z,94476.19
2022-12-16T06:49:14.546Z,94522.03
2022-12-16T06:51:48.633Z,94447.78
2022-12-16T06:54:09.167Z,94521.44
2022-12-16T06:56:29.502Z,94507.69
2022-12-16T06:58:50.091Z,94495.91
2022-12-16T07:01:10.706Z,94524.84
2022-12-16T07:03:35.542Z,94506.59
2022-12-16T07:05:56.197Z,94512.88
2022-12-16T07:08:16.597Z,94533.75
2022-12-16T07:10:36.909Z,94520.97
2022-12-16T07:12:57.226Z,94539.06
2022-12-16T07:15:17.862Z,94519.16
2022-12-16T07:17:38.072Z,94505.84
2022-12-16T07:19:58.505Z,94515.88
2022-12-16T07:22:18.915Z,94528.25
2022-12-16T07:24:38.772Z,94520.75
2022-12-16T07:26:58.692Z,94533.22
2022-12-16T07:29:19.007Z,94533.28
2022-12-16T07:31:39.517Z,94514.63
2022-12-16T07:34:00.130Z,94535.59
2022-12-16T07:36:20.653Z,94525.09
2022-12-16T07:38:40.853Z,94543.44
2022-12-16T07:41:01.446Z,94517.34
2022-12-16T07:43:21.405Z,94521.44
2022-12-16T07:45:45.156Z,94526.78
2022-12-16T07:48:07.530Z,94509.56
2022-12-16T07:50:28.983Z,94535.63
2022-12-16T07:52:48.999Z,94525.44
2022-12-16T07:55:23.266Z,94514.22
2022-12-16T07:57:43.273Z,94529.69
2022-12-16T08:00:03.611Z,94547.06
2022-12-16T08:02:24.125Z,94525.53
2022-12-16T08:04:44.507Z,94538.25
2022-12-16T08:07:05.109Z,94523.22
2022-12-16T08:09:25.176Z,94551.16
2022-12-16T08:11:45.064Z,94547.78
2022-12-16T08:14:05.177Z,94514.72
2022-12-16T08:16:25.787Z,94555.78
2022-12-16T08:18:46.068Z,94525.03
2022-12-16T08:21:06.107Z,94539.84
2022-12-16T08:23:26.002Z,94557.81
2022-12-16T08:25:46.435Z,94519.69
2022-12-16T08:28:12.806Z,94543.78
2022-12-16T08:30:37.917Z,94533.22
2022-12-16T08:33:00.711Z,94534.75
2022-12-16T08:35:25.692Z,94532.22
2022-12-16T08:37:45.584Z,94541.91
2022-12-16T08:40:34.776Z,94525.38
2022-12-16T08:42:57.795Z,94517.44
2022-12-16T08:45:18.244Z,94531.41
2022-12-16T08:47:38.413Z,94506.59
2022-12-16T08:50:01.640Z,94534.81
2022-12-16T08:52:23.008Z,94530.53
2022-12-16T08:54:43.016Z,94485.50
2022-12-16T08:57:03.291Z,94511.69
2022-12-16T08:59:23.824Z,94501.53
2022-12-16T09:01:43.916Z,94488.88
2022-12-16T09:04:04.204Z,94489.81
2022-12-16T09:06:24.631Z,94501.84
2022-12-16T09:08:45.021Z,94465.44
2022-12-16T09:11:05.247Z,94491.47
2022-12-16T09:13:31.258Z,94478.16
2022-12-16T09:15:51.845Z,94482.94
2022-12-16T09:18:13.487Z,94443.91
2022-12-16T09:20:33.734Z,94469.16
2022-12-16T09:22:54.205Z,94461.13
2022-12-16T09:25:15.261Z,94466.31
2022-12-16T09:27:35.069Z,94459.78
2022-12-16T09:29:55.456Z,94441.44
2022-12-16T09:32:16.086Z,94450.31
2022-12-16T09:34:36.465Z,94425.75
2022-12-16T09:36:56.935Z,94458.22
2022-12-16T09:39:17.073Z,94422.38
2022-12-16T09:41:41.209Z,94448.75
2022-12-16T09:44:07.775Z,94432.31
2022-12-16T09:46:48.264Z,94439.31
2022-12-16T09:50:02.212Z,94437.06
2022-12-16T09:52:23.278Z,94437.53
2022-12-16T09:54:45.847Z,94413.94
2022-12-16T09:57:06.663Z,94445.44
2022-12-16T09:59:32.842Z,94415.34
2022-12-16T10:01:55.601Z,94442.28
2022-12-16T10:04:16.617Z,94438.66
2022-12-16T10:07:03.418Z,94443.25
2022-12-16T10:09:39.986Z,94437.78
2022-12-16T10:12:29.383Z,94410.56
2022-12-16T10:14:56.148Z,94448.13
2022-12-16T10:17:31.708Z,94428.19
2022-12-16T10:20:33.391Z,94420.75
2022-12-16T10:23:23.160Z,94412.44
2022-12-16T10:25:47.943Z,94411.94
2022-12-16T10:28:08.639Z,94404.91
2022-12-16T10:30:31.677Z,94386.34
2022-12-16T10:32:54.095Z,94390.50
2022-12-16T10:35:14.225Z,94376.63
2022-12-16T10:37:57.773Z,94384.19
2022-12-16T10:40:18.931Z,94372.41
2022-12-16T10:42:48.084Z,94380.06
2022-12-16T10:45:14.380Z,94400.81
2022-12-16T10:47:34.458Z,94374.38
2022-12-16T10:49:55.065Z,94397.66
2022-12-16T10:52:15.693Z,94383.63
2022-12-16T10:54:38.751Z,94382.50
2022-12-16T10:57:28.308Z,94377.63
2022-12-16T10:59:54.133Z,94396.72
2022-12-16T11:02:15.651Z,94385.78
2022-12-16T11:04:49.726Z,94390.22
2022-12-16T11:07:09.666Z,94403.44
2022-12-16T11:09:41.905Z,94390.22
2022-12-16T11:12:01.805Z,94378.94
2022-12-16T11:14:34.961Z,94389.25
2022-12-16T11:16:55.372Z,94388.09
2022-12-16T11:19:16.707Z,94392.50
2022-12-16T11:21:39.082Z,94387.44
2022-12-16T11:23:59.572Z,94386.09
2022-12-16T11:26:37.522Z,94379.41
2022-12-16T11:28:58.132Z,94379.16
2022-12-16T11:31:25.276Z,94378.56
2022-12-16T11:33:47.045Z,94374.66
2022-12-16T11:36:11.985Z,94367.75
2022-12-16T11:39:02.631Z,94366.25
2022-12-16T11:41:22.896Z,94358.38
2022-12-16T11:43:44.132Z,94361.22
2022-12-16T11:46:04.601Z,94360.56
2022-12-16T11:48:31.542Z,94350.50
2022-12-16T11:50:55.435Z,94351.69
2022-12-16T11:53:16.203Z,94357.22
2022-12-16T11:56:04.125Z,94325.88
2022-12-16T11:58:21.605Z,94329.63
2022-12-16T12:00:42.285Z,94337.16
2022-12-16T12:03:25.168Z,94349.22
2022-12-16T12:06:15.126Z,94331.47
2022-12-16T12:08:48.307Z,94342.81
2022-12-16T12:11:30.887Z,94325.59
2022-12-16T12:14:09.975Z,94339.44
2022-12-16T12:17:03.840Z,94334.28
2022-12-16T12:20:05.517Z,94314.56
2022-12-16T12:22:53.950Z,94324.44
2022-12-16T12:25:29.129Z,94333.69
2022-12-16T12:28:08.259Z,94316.00
2022-12-16T12:30:38.529Z,94323.47
2022-12-16T12:33:52.371Z,94311.47
2022-12-16T12:36:38.473Z,94301.97
2022-12-16T12:39:33.788Z,94307.31
2022-12-16T12:42:23.204Z,94313.75
2022-12-16T12:44:49.078Z,94305.34
2022-12-16T12:47:29.237Z,94319.38
2022-12-16T12:50:10.369Z,94322.13
2022-12-16T12:52:52.055Z,94302.53
2022-12-16T12:55:49.133Z,94306.69
2022-12-16T12:58:10.835Z,94319.84
2022-12-16T13:00:39.979Z,94326.09
2022-12-16T13:03:11.142Z,94312.09
2022-12-16T13:05:32.769Z,94331.97
2022-12-16T13:08:00.628Z,94310.91
2022-12-16T13:10:39.382Z,94304.69
2022-12-16T13:12:59.894Z,94307.50
2022-12-16T13:15:27.448Z,94297.91
2022-12-16T13:17:47.293Z,94293.53
2022-12-16T13:20:14.960Z,94315.28
2022-12-16T13:23:04.983Z,94294.81
2022-12-16T13:25:49.376Z,94310.59
2022-12-16T13:28:14.816Z,94294.00
2022-12-16T13:30:34.991Z,94305.06
2022-12-16T13:32:56.398Z,94299.81
2022-12-16T13:35:21.121Z,94292.56
2022-12-16T13:37:43.617Z,94308.13
2022-12-16T13:40:18.652Z,94312.59
2022-12-16T13:42:57.825Z,94330.81
2022-12-16T13:45:18.557Z,94319.72
2022-12-16T13:48:10.977Z,94325.63
2022-12-16T13:50:59.924Z,94324.81
2022-12-16T13:53:22.527Z,94335.22
2022-12-16T13:55:54.841Z,94324.34
2022-12-16T13:58:21.709Z,94320.19
2022-12-16T14:00:44.345Z,94332.94
2022-12-16T14:03:04.927Z,94349.00
2022-12-16T14:05:38.835Z,94350.09
2022-12-16T14:07:59.696Z,94341.38
2022-12-16T14:10:20.016Z,94362.13
2022-12-16T14:13:02.093Z,94357.28
2022-12-16T14:15:43.292Z,94355.22
2022-12-16T14:18:18.687Z,94356.97
2022-12-16T14:21:00.591Z,94359.22
2022-12-16T14:23:57.290Z,94358.25
2022-12-16T14:26:17.433Z,94369.44
2022-12-16T14:28:52.416Z,94363.66
2022-12-16T14:31:21.513Z,94368.91
2022-12-16T14:33:47.609Z,94363.66
2022-12-16T14:36:08.972Z,94341.03
2022-12-16T14:38:48.612Z,94369.88
2022-12-16T14:41:09.972Z,94355.91
2022-12-16T14:43:47.997Z,94359.50
2022-12-16T14:46:08.830Z,94352.91
2022-12-16T14:48:53.399Z,94360.78
2022-12-16T14:51:13.660Z,94338.41
2022-12-16T14:53:42.520Z,94352.69
2022-12-16T14:56:02.782Z,94350.72
2022-12-16T14:58:28.938Z,94353.97
2022-12-16T15:00:49.261Z,94356.50
2022-12-16T15:03:10.139Z,94349.75
2022-12-16T15:05:30.922Z,94354.03
2022-12-16T15:07:54.716Z,94346.25
2022-12-16T15:10:16.637Z,94362.31
2022-12-16T15:12:39.746Z,94355.75
2022-12-16T15:15:04.656Z,94365.72
2022-12-16T15:17:24.794Z,94347.88
2022-12-16T15:19:45.055Z,94351.81
2022-12-16T15:22:06.484Z,94354.47
2022-12-16T15:24:45.250Z,94358.19
2022-12-16T15:27:05.260Z,94359.09
2022-12-16T15:29:48.578Z,94360.88
2022-12-16T15:32:11.786Z,94376.72
2022-12-16T15:34:47.401Z,94357.06
2022-12-16T15:37:07.866Z,94377.25
2022-12-16T15:39:45.793Z,94364.94
2022-12-16T15:42:13.726Z,94373.69
2022-12-16T15:44:44.170Z,94364.88
2022-12-16T15:47:06.345Z,94382.66
2022-12-16T15:49:41.123Z,94388.50
2022-12-16T15:52:04.544Z,94387.91
2022-12-16T15:54:24.840Z,94390.84
2022-12-16T15:57:05.473Z,94382.63
2022-12-16T15:59:43.443Z,94392.06
2022-12-16T16:02:05.281Z,94386.00
2022-12-16T16:04:54.940Z,94399.75
2022-12-16T16:07:15.340Z,94387.16
2022-12-16T16:09:41.015Z,94392.53
2022-12-16T16:12:01.485Z,94374.91
2022-12-16T16:14:21.606Z,94406.34
2022-12-16T16:16:42.098Z,94414.19
2022-12-16T16:19:02.463Z,94386.81
2022-12-16T16:21:22.950Z,94398.59
2022-12-16T16:23:42.821Z,94390.06
2022-12-16T16:26:04.353Z,94387.97
2022-12-16T16:28:24.536Z,94401.22
2022-12-16T16:30:44.768Z,94413.69
2022-12-16T16:33:05.274Z,94400.06
2022-12-16T16:35:25.772Z,94401.72
2022-12-16T16:37:46.305Z,94399.91
2022-12-16T16:40:06.759Z,94412.56
2022-12-16T16:42:28.830Z,94419.50
2022-12-16T16:44:49.366Z,94418.19
2022-12-16T16:47:09.703Z,94409.66
2022-12-16T16:49:31.468Z,94422.41
2022-12-16T16:51:51.342Z,94415.06
2022-12-16T16:54:14.522Z,94413.31
2022-12-16T16:56:34.866Z,94422.28
2022-12-16T16:58:55.170Z,94398.09
2022-12-16T17:01:15.876Z,94398.91
2022-12-16T17:03:36.929Z,94425.59
2022-12-16T17:05:57.861Z,94410.34
2022-12-16T17:08:18.170Z,94412.81
2022-12-16T17:10:38.068Z,94397.91
2022-12-16T17:13:04.435Z,94411.34
2022-12-16T17:15:43.013Z,94402.03
2022-12-16T17:18:03.355Z,94403.31
2022-12-16T17:20:23.809Z,94403.81
2022-12-16T17:22:44.250Z,94391.53
2022-12-16T17:25:04.817Z,94399.06
2022-12-16T17:27:33.109Z,94394.31
2022-12-16T17:29:53.283Z,94403.47
2022-12-16T17:32:30.418Z,94408.22
2022-12-16T17:34:50.800Z,94406.59
2022-12-16T17:37:12.921Z,94423.56
2022-12-16T17:39:33.280Z,94391.03
2022-12-16T17:41:53.756Z,94409.50
2022-12-16T17:44:14.263Z,94403.78
2022-12-16T17:46:34.333Z,94414.25
2022-12-16T17:48:54.283Z,94405.75
2022-12-16T17:51:14.664Z,94420.44
2022-12-16T17:53:35.492Z,94423.88
2022-12-16T17:55:55.786Z,94428.94
2022-12-16T17:58:16.099Z,94423.69
2022-12-16T18:00:36.640Z,94435.78
2022-12-16T18:02:56.984Z,94431.88
2022-12-16T18:05:17.190Z,94424.34
2022-12-16T18:07:37.274Z,94423.72
2022-12-16T18:09:57.732Z,94428.16
2022-12-16T18:12:18.238Z,94412.63
2022-12-16T18:14:38.643Z,94435.03
2022-12-16T18:16:58.588Z,94424.41
2022-12-16T18:19:19.032Z,94419.97
2022-12-16T18:21:39.502Z,94434.03
2022-12-16T18:24:02.886Z,94409.00
2022-12-16T18:26:26.347Z,94438.44
2022-12-16T18:28:46.830Z,94431.88
